Latest Weather Observations for Mount Ginini

IDN60901

Issued at 4:21 pm EST Wednesday 31 August 2016 (issued every 10 minutes, with the page automatically refreshed every 10 minutes)

About weather observations | Map of Canberra area stations | Latest observations for Canberra area | Other Formats
Station Details ID: 070349 Name: MOUNT GININI AWS Lat: -35.53 Lon: 148.77 Height: 1760.0 m
Data from the previous 72 hours. | See also: Recent months at Mount Ginini
Date/Time
EST
Temp
°C
App
Temp
°C
Dew
Point
°C
Rel
Hum
%
Delta-T
°C
Wind Press
QNH
hPa
Press
MSL
hPa
Rain since
9am
mm
Dir  Spd
km/h
Gust
km/h
Spd
kts
Gust
kts
31/04:00pm 4.9 -0.4 4.9 100 0.0 W 22 48 12 26 - - 6.8
31/03:30pm 4.6 -1.2 4.6 100 0.0 W 24 44 13 24 - - 6.8
31/03:00pm 5.1 0.4 5.1 100 0.0 W 19 43 10 23 - - 6.8
31/02:30pm 5.0 -0.7 5.0 100 0.0 W 24 46 13 25 - - 6.8
31/02:00pm 5.5 -0.1 5.5 100 0.0 W 24 41 13 22 - - 6.8
31/01:30pm 5.8 0.7 5.8 100 0.0 W 22 43 12 23 - - 5.6
31/01:00pm 6.3 1.7 6.3 100 0.0 WNW 20 44 11 24 - - 5.0
31/12:30pm 5.9 1.2 5.9 100 0.0 WNW 20 44 11 24 - - 4.6
31/12:09pm 6.0 -0.2 6.0 100 0.0 NW 28 54 15 29 - - 4.2
31/12:00pm 5.9 0.8 5.9 100 0.0 NW 22 37 12 20 - - 3.6
31/11:30am 5.7 -0.6 5.7 100 0.0 NW 28 46 15 25 - - 2.6
31/11:00am 5.6 -0.7 5.6 100 0.0 NW 28 48 15 26 - - 2.6
31/10:30am 5.7 1.5 5.7 100 0.0 WNW 17 30 9 16 - - 1.4
31/10:01am 5.4 -1.0 5.4 100 0.0 NW 28 50 15 27 - - 1.4
31/10:00am 5.4 -1.0 5.4 100 0.0 NW 28 50 15 27 - - 1.4
31/09:30am 5.6 0.0 5.6 100 0.0 NW 24 46 13 25 - - 1.2
31/09:18am 5.6 -0.7 5.6 100 0.0 NW 28 48 15 26 - - 1.2
31/09:00am 5.4 -0.2 5.4 100 0.0 WNW 24 46 13 25 - - 20.8
31/08:44am 5.3 -1.1 5.3 100 0.0 NW 28 48 15 26 - - 20.2
31/08:30am 5.2 -0.4 5.2 100 0.0 WNW 24 41 13 22 - - 20.0
31/08:00am 5.4 -0.2 5.4 100 0.0 WNW 24 44 13 24 - - 19.6
31/07:30am 5.6 1.0 5.6 100 0.0 NNW 19 37 10 20 - - 16.4
31/07:00am 5.2 0.9 5.2 100 0.0 NW 17 32 9 17 - - 14.4
31/06:30am 5.0 -0.3 5.0 100 0.0 NW 22 35 12 19 - - 12.0
31/06:09am 4.9 -1.6 4.9 100 0.0 NW 28 46 15 25 - - 11.6
31/06:00am 5.2 -1.2 5.2 100 0.0 NW 28 44 15 24 - - 11.4
31/05:30am 5.4 -1.3 5.4 100 0.0 NW 30 54 16 29 - - 10.2
31/05:00am 5.4 -1.0 5.4 100 0.0 WNW 28 46 15 25 - - 7.4
31/04:30am 5.8 -1.4 5.8 100 0.0 NW 33 61 18 33 - - 4.6
31/04:00am 6.0 -1.6 6.0 100 0.0 NW 35 57 19 31 - - 3.2
31/03:30am 6.1 -1.1 6.1 100 0.0 NW 33 70 18 38 - - 2.2
31/03:00am 6.1 -0.9 6.1 100 0.0 NW 32 56 17 30 - - 1.8
31/02:30am 6.2 -0.8 6.2 100 0.0 NW 32 57 17 31 - - 1.8
31/02:00am 6.1 -0.5 6.1 100 0.0 NW 30 52 16 28 - - 1.4
31/01:30am 6.2 -0.8 6.2 100 0.0 NW 32 57 17 31 - - 0.4
31/01:00am 6.2 -0.8 6.2 100 0.0 NW 32 57 17 31 - - 0.4
31/12:31am 6.2 0.0 6.2 100 0.0 NNW 28 52 15 28 - - 0.4
31/12:30am 6.2 0.4 6.2 100 0.0 NNW 26 50 14 27 - - 0.4
31/12:00am 6.2 -0.9 6.2 100 0.0 NNW 33 61 18 33 - - 0.2
 
Date/Time
EST
Temp
°C
App
Temp
°C
Dew
Point
°C
Rel
Hum
%
Delta-T
°C
Wind Press
QNH
hPa
Press
MSL
hPa
Rain since
9am
mm
Dir  Spd
km/h
Gust
km/h
Spd
kts
Gust
kts
30/11:30pm 6.2 -0.4 6.2 100 0.0 NNW 30 59 16 32 - - 0.2
30/11:00pm 6.2 0.0 6.2 100 0.0 NNW 28 48 15 26 - - 0.0
30/10:30pm 6.1 -0.9 6.1 100 0.0 NW 32 56 17 30 - - 0.0
30/10:00pm 6.0 -0.2 6.0 100 0.0 NW 28 48 15 26 - - 0.0
30/09:30pm 5.8 -0.5 5.8 100 0.0 NNW 28 54 15 29 - - 0.0
30/09:05pm 5.9 -0.4 5.9 100 0.0 NNW 28 52 15 28 - - 0.0
30/09:00pm 5.8 -0.1 5.8 100 0.0 NNW 26 52 14 28 - - 0.0
30/08:32pm 5.9 -0.4 5.9 100 0.0 NNW 28 54 15 29 - - 0.0
30/08:30pm 5.9 0.0 5.9 100 0.0 NNW 26 54 14 29 - - 0.0
30/08:13pm 5.9 -0.4 5.9 100 0.0 NNW 28 50 15 27 - - 0.0
30/08:00pm 5.9 0.4 5.9 100 0.0 NNW 24 44 13 24 - - 0.0
30/07:30pm 5.8 1.0 5.8 100 0.0 NNW 20 39 11 21 - - 0.0
30/07:00pm 5.8 1.0 5.8 100 0.0 NNW 20 37 11 20 - - 0.0
30/06:30pm 5.7 1.1 5.7 100 0.0 NNW 19 41 10 22 - - 0.0
30/06:00pm 5.8 1.0 5.7 99 0.0 NNW 20 44 11 24 - - 0.0
30/05:30pm 5.8 1.2 5.7 99 0.0 NNW 19 37 10 20 - - 0.0
30/05:00pm 6.2 2.6 5.0 92 0.6 NNW 13 28 7 15 - - 0.0
30/04:30pm 7.3 3.1 3.7 78 1.7 NNW 15 35 8 19 - - 0.0
30/04:00pm 8.2 4.0 4.0 75 2.0 NNW 15 37 8 20 - - 0.0
30/03:30pm 8.5 3.9 3.8 72 2.3 NNW 17 30 9 16 - - 0.0
30/03:00pm 9.0 4.0 3.8 70 2.5 NW 19 30 10 16 - - 0.0
30/02:30pm 9.0 4.0 3.8 70 2.5 NW 19 35 10 19 - - 0.0
30/02:00pm 8.7 3.5 3.3 69 2.6 NW 20 35 11 19 - - 0.0
30/01:30pm 9.0 4.3 3.0 66 2.9 NW 17 30 9 16 - - 0.0
30/01:00pm 8.7 2.8 1.4 60 3.3 NW 22 41 12 22 - - 0.0
30/12:30pm 8.4 2.8 1.1 60 3.3 NW 20 37 11 20 - - 0.0
30/12:00pm 7.9 2.5 -1.6 51 4.0 NW 17 32 9 17 - - 0.0
30/11:30am 7.5 2.5 -1.4 53 3.8 NW 15 28 8 15 - - 0.0
30/11:00am 7.9 3.1 0.4 59 3.3 NW 15 33 8 18 - - 0.0
30/10:30am 6.7 1.3 -1.4 56 3.4 NW 17 32 9 17 - - 0.0
30/10:00am 6.3 0.3 -1.8 56 3.4 NW 20 32 11 17 - - 0.0
30/09:30am 6.0 0.0 -3.1 52 3.7 NW 19 32 10 17 - - 0.0
30/09:00am 5.1 -1.1 -4.7 49 3.7 NNW 19 32 10 17 - - 0.0
30/08:30am 4.5 -2.2 -4.5 52 3.4 NW 22 33 12 18 - - 0.0
30/08:00am 4.0 -2.6 -3.3 59 2.9 NW 22 37 12 20 - - 0.0
30/07:30am 3.8 -2.4 -3.2 60 2.7 NW 20 35 11 19 - - 0.0
30/07:00am 3.7 -3.0 -4.5 55 3.1 NW 22 33 12 18 - - 0.0
30/06:30am 3.7 -2.9 -6.5 47 3.7 NW 20 30 11 16 - - 0.0
30/06:00am 3.7 -3.3 -12.2 30 5.2 NW 20 33 11 18 - - 0.0
30/05:30am 3.6 -3.5 -13.2 28 5.3 NW 20 33 11 18 - - 0.0
30/05:00am 4.4 -2.8 -14.9 23 5.9 NW 20 32 11 17 - - 0.0
30/04:30am 4.5 -2.5 -12.4 28 5.5 NW 20 33 11 18 - - 0.0
30/04:00am 4.5 -2.5 -12.0 29 5.5 NW 20 30 11 16 - - 0.0
30/03:30am 4.4 -2.4 -12.0 29 5.4 NW 19 28 10 15 - - 0.0
30/03:00am 4.1 -2.3 -12.3 29 5.4 NW 17 26 9 14 - - 0.0
30/02:30am 3.8 -1.6 -8.5 40 4.4 NNW 13 24 7 13 - - 0.0
30/02:00am 4.1 -1.4 -10.0 35 4.9 NNW 13 22 7 12 - - 0.0
30/01:30am 4.6 -1.2 -14.7 23 6.0 NNW 13 20 7 11 - - 0.0
30/01:00am 3.9 -1.4 -11.7 31 5.2 NNW 11 17 6 9 - - 0.0
30/12:30am 3.7 -1.5 -11.1 33 4.9 N 11 19 6 10 - - 0.0
30/12:00am 2.8 -2.1 -3.5 63 2.4 N 13 22 7 12 - - 0.0
 
Date/Time
EST
Temp
°C
App
Temp
°C
Dew
Point
°C
Rel
Hum
%
Delta-T
°C
Wind Press
QNH
hPa
Press
MSL
hPa
Rain since
9am
mm
Dir  Spd
km/h
Gust
km/h
Spd
kts
Gust
kts
29/11:30pm 2.5 -2.3 -2.6 69 2.0 N 13 20 7 11 - - 0.0
29/11:00pm 2.6 -2.3 -3.5 64 2.3 NNE 13 19 7 10 - - 0.0
29/10:30pm 2.3 -1.9 -0.6 81 1.2 NNE 11 19 6 10 - - 0.0
29/10:00pm 2.0 -2.0 0.7 91 0.6 NE 11 20 6 11 - - 0.0
29/09:30pm 2.1 -2.7 0.5 89 0.7 NE 15 22 8 12 - - 0.0
29/09:00pm 2.3 -2.4 -1.5 76 1.5 NE 13 22 7 12 - - 0.0
29/08:30pm 2.2 -2.8 -0.9 80 1.3 ENE 15 24 8 13 - - 0.0
29/08:00pm 1.9 -2.7 1.3 96 0.3 NE 15 24 8 13 - - 0.0
29/07:30pm 2.3 -2.3 1.7 96 0.3 NE 15 22 8 12 - - 0.0
29/07:00pm 2.2 -2.4 1.6 96 0.3 ENE 15 24 8 13 - - 0.0
29/06:30pm 2.2 -2.0 1.5 95 0.3 NE 13 22 7 12 - - 0.0
29/06:00pm 2.4 -1.7 -0.2 83 1.1 NE 11 20 6 11 - - 0.0
29/05:30pm 2.3 -1.6 -1.5 76 1.5 ENE 9 15 5 8 - - 0.0
29/05:00pm 3.6 0.3 -1.5 69 2.1 NE 6 11 3 6 - - 0.0
29/04:30pm 3.7 0.3 -0.7 73 1.8 ENE 7 11 4 6 - - 0.0
29/04:00pm 3.8 -0.1 -1.2 70 2.1 ENE 9 15 5 8 - - 0.0
29/03:30pm 4.0 0.2 -1.0 70 2.1 NE 9 17 5 9 - - 0.0
29/03:00pm 4.9 1.5 -0.3 69 2.2 ENE 7 13 4 7 - - 0.0
29/02:30pm 5.0 1.4 -1.9 61 2.8 ENE 7 13 4 7 - - 0.0
29/02:00pm 6.7 3.3 -2.2 53 3.7 NNE 6 13 3 7 - - 0.0
29/01:30pm 5.2 1.2 -2.1 59 3.0 ENE 9 15 5 8 - - 0.0
29/01:00pm 4.6 0.6 -2.0 62 2.7 ENE 9 15 5 8 - - 0.0
29/12:30pm 5.4 1.4 -2.2 58 3.1 NE 9 19 5 10 - - 0.0
29/12:00pm 5.2 1.1 -0.2 68 2.3 NE 11 20 6 11 - - 0.0
29/11:30am 5.0 0.4 -1.2 64 2.6 ENE 13 24 7 13 - - 0.0
29/11:00am 5.2 0.6 -1.0 64 2.6 ENE 13 24 7 13 - - 0.0
29/10:30am 4.6 -0.4 -1.0 67 2.3 ENE 15 24 8 13 - - 0.0
29/10:00am 4.2 -0.5 -1.6 66 2.4 ENE 13 24 7 13 - - 0.0
29/09:30am 3.4 -2.4 -1.7 69 2.1 E 19 30 10 16 - - 0.0
29/09:00am 2.4 -3.6 -2.7 69 2.0 E 19 26 10 14 - - 0.0
29/08:30am 2.4 -3.5 -2.3 71 1.8 E 19 26 10 14 - - 0.0
29/08:00am 1.8 -3.8 -2.9 71 1.9 E 17 26 9 14 - - 0.0
29/07:30am 1.9 -3.8 -3.8 66 2.3 E 17 24 9 13 - - 0.0
29/07:00am 1.6 -3.5 -5.1 61 2.5 ESE 13 22 7 12 - - 0.0
29/06:30am 1.2 -2.9 -6.8 55 2.8 ESE 7 20 4 11 - - 0.0
29/06:00am 1.4 -2.2 -7.9 50 3.2 E 4 13 2 7 - - 0.0
29/05:30am 1.8 -2.3 -8.8 45 3.6 ESE 6 11 3 6 - - 0.0
29/05:00am -0.1 -4.6 -0.4 98 0.1 S 13 19 7 10 - - 0.0
29/04:30am -0.6 -6.5 -0.6 100 0.0 SSW 20 30 11 16 - - 0.0
29/04:00am -0.7 -7.3 -0.7 100 0.0 SSW 24 35 13 19 - - 0.0
29/03:30am -0.7 -8.1 -0.7 100 0.0 SW 28 41 15 22 - - 0.0
29/03:00am -0.6 -7.2 -0.6 100 0.0 SW 24 37 13 20 - - 0.0
29/02:30am -0.5 -7.1 -0.5 100 0.0 SW 24 33 13 18 - - 0.0
29/02:00am -0.4 -7.4 -0.5 99 0.0 SW 26 35 14 19 - - 0.0
29/01:30am -0.4 -7.8 -0.5 99 0.0 SW 28 39 15 21 - - 0.0
29/01:00am -0.4 -7.0 -0.4 100 0.0 SW 24 33 13 18 - - 0.0
29/12:30am -0.3 -6.1 -0.3 100 0.0 SW 20 32 11 17 - - 0.0
29/12:00am -0.3 -6.1 -0.3 100 0.0 SW 20 30 11 16 - - 0.0
 
Date/Time
EST
Temp
°C
App
Temp
°C
Dew
Point
°C
Rel
Hum
%
Delta-T
°C
Wind Press
QNH
hPa
Press
MSL
hPa
Rain since
9am
mm
Dir  Spd
km/h
Gust
km/h
Spd
kts
Gust
kts
28/11:30pm -0.3 -5.9 -0.3 100 0.0 SW 19 28 10 15 - - 0.0
28/11:00pm -0.2 -6.0 -0.2 100 0.0 SW 20 32 11 17 - - 0.0
28/10:30pm -0.2 -5.8 -0.2 100 0.0 SW 19 28 10 15 - - 0.0
28/10:00pm -0.3 -6.1 -0.3 100 0.0 SW 20 30 11 16 - - 0.0
28/09:30pm -0.2 -6.0 -0.2 100 0.0 SW 20 33 11 18 - - 0.0
28/09:00pm -0.1 -5.9 -0.1 100 0.0 SW 20 30 11 16 - - 0.0
28/08:30pm 0.0 -5.8 0.0 100 0.0 SW 20 30 11 16 - - 0.0
28/08:00pm 0.0 -5.2 -0.1 99 0.0 WSW 17 28 9 15 - - 0.0
28/07:30pm 0.1 -4.4 -0.2 98 0.1 WSW 13 24 7 13 - - 0.0
28/07:00pm 0.3 -3.8 0.0 98 0.1 WSW 11 22 6 12 - - 0.0
28/06:30pm 0.7 -2.9 0.4 98 0.1 WSW 9 20 5 11 - - 0.0
28/06:00pm 0.8 -3.6 0.4 97 0.2 WSW 13 26 7 14 - - 0.0
28/05:30pm 1.4 -2.6 0.5 94 0.4 SW 11 20 6 11 - - 0.0
28/05:00pm 1.6 -3.0 -1.0 83 1.0 WSW 13 28 7 15 - - 0.0
28/04:30pm 3.0 -1.1 -0.3 79 1.4 SW 11 26 6 14 - - 0.0

Latest Capital City Observations: Canberra | Sydney | Melbourne | Brisbane | Adelaide | Perth | Hobart | Darwin

Other Formats:

Comma delimited format used in spreadsheet applications
http://www.bom.gov.au/fwo/IDN60903/IDN60903.95925.axf

JavaScript Object Notation format (JSON) in row-major order
http://www.bom.gov.au/fwo/IDN60903/IDN60903.95925.json